Time;durP1;ratioP1;P1;durP2;ratioP2;P2;SDS_P1;SDS_P2;PMS_P1;PMS_P2;Temp;Humidity;BMP_temperature;BMP_pressure;BME280_temperature;BME280_humidity;BME280_pressure;Samples;Min_cycle;Max_cycle;Signal;HPM_P1;HPM_P2
2021/12/25 00:00:50;;;;;;;6.23;4.87;;;5.00;99.90;;;;;;5009365;28;21517;-69
2021/12/25 00:03:17;;;;;;;5.93;3.17;;;5.00;99.90;;;;;;5023621;28;20462;-67
2021/12/25 00:05:45;;;;;;;8.07;4.33;;;5.00;99.90;;;;;;5026945;28;20665;-67
2021/12/25 00:08:12;;;;;;;5.23;3.07;;;5.10;99.90;;;;;;5022604;28;21276;-68
2021/12/25 00:10:39;;;;;;;6.23;3.40;;;5.10;99.90;;;;;;5026092;28;21440;-67
2021/12/25 00:13:06;;;;;;;5.40;2.90;;;5.00;99.90;;;;;;4997764;28;22283;-67
2021/12/25 00:15:34;;;;;;;4.70;3.00;;;4.90;99.90;;;;;;5010937;28;20453;-67
2021/12/25 00:18:02;;;;;;;6.17;4.23;;;4.80;99.90;;;;;;5023012;28;20546;-66
2021/12/25 00:20:29;;;;;;;9.87;4.40;;;4.80;99.90;;;;;;5013613;28;20458;-68
2021/12/25 00:22:56;;;;;;;9.40;6.20;;;4.80;99.90;;;;;;4990297;28;20702;-67
2021/12/25 00:25:24;;;;;;;5.80;3.40;;;4.70;99.90;;;;;;5015787;28;20489;-68
2021/12/25 00:27:59;;;;;;;5.40;2.80;;;4.60;99.90;;;;;;5043509;28;23313;-68
2021/12/25 00:30:34;;;;;;;3.13;2.83;;;4.60;99.90;;;;;;5041111;28;20951;-68
2021/12/25 00:33:06;;;;;;;16.90;4.97;;;4.60;99.90;;;;;;5033685;28;20489;-68
2021/12/25 00:35:33;;;;;;;5.20;4.77;;;4.40;99.90;;;;;;5034476;28;20459;-67
2021/12/25 00:38:00;;;;;;;2.80;2.60;;;4.40;99.90;;;;;;5032528;28;20455;-67
2021/12/25 00:40:28;;;;;;;3.20;2.90;;;4.30;99.90;;;;;;5035676;28;20594;-67
2021/12/25 00:42:55;;;;;;;5.93;3.97;;;4.30;99.90;;;;;;5041466;28;20575;-69
2021/12/25 00:45:22;;;;;;;8.87;3.10;;;4.40;99.90;;;;;;5033748;28;21509;-68
2021/12/25 00:47:49;;;;;;;5.73;3.63;;;4.30;99.90;;;;;;5026962;28;20595;-69
2021/12/25 00:50:18;;;;;;;5.20;3.20;;;4.30;99.90;;;;;;5035759;28;20538;-68
2021/12/25 00:52:45;;;;;;;4.63;2.40;;;4.30;99.90;;;;;;5046855;28;20449;-70
2021/12/25 00:55:12;;;;;;;6.47;4.10;;;4.30;99.90;;;;;;5029647;28;21061;-68
2021/12/25 00:57:39;;;;;;;7.13;3.77;;;4.40;99.90;;;;;;5025322;28;20474;-69
2021/12/25 01:00:10;;;;;;;6.00;5.07;;;4.40;99.90;;;;;;5045195;28;20465;-68
2021/12/25 01:02:42;;;;;;;3.60;2.57;;;4.40;99.90;;;;;;5034886;28;20464;-67
2021/12/25 01:05:11;;;;;;;2.87;2.37;;;4.50;99.90;;;;;;5034287;28;21011;-69
2021/12/25 01:07:40;;;;;;;5.60;4.43;;;4.20;99.90;;;;;;5025668;28;20437;-67
2021/12/25 01:10:13;;;;;;;9.57;5.80;;;4.20;99.90;;;;;;5031985;28;20852;-68
2021/12/25 01:12:52;;;;;;;6.20;4.83;;;4.20;99.90;;;;;;5040444;28;20535;-68
2021/12/25 01:15:24;;;;;;;6.57;4.63;;;4.10;99.90;;;;;;5031881;28;20433;-68
2021/12/25 01:26:34;;;;;;;7.20;4.30;;;4.10;99.90;;;;;;5027316;28;20947;-66
2021/12/25 01:29:29;;;;;;;4.27;3.07;;;4.10;99.90;;;;;;5028294;28;20441;-66
2021/12/25 01:32:17;;;;;;;6.30;3.80;;;4.20;99.90;;;;;;5038537;28;20428;-69
2021/12/25 01:35:12;;;;;;;7.30;5.73;;;4.10;99.90;;;;;;5051619;28;20427;-67
2021/12/25 01:37:43;;;;;;;13.50;5.23;;;4.00;99.90;;;;;;5030434;28;20576;-68
2021/12/25 01:40:30;;;;;;;8.57;5.23;;;4.00;99.90;;;;;;5047043;28;20466;-67
2021/12/25 01:48:28;;;;;;;12.20;6.30;;;4.20;99.90;;;;;;5031985;28;21119;-67
2021/12/25 01:50:55;;;;;;;8.10;3.53;;;4.10;99.90;;;;;;5018940;28;20466;-68
2021/12/25 01:53:23;;;;;;;8.50;6.10;;;4.00;99.90;;;;;;5047320;28;26366;-67
2021/12/25 01:55:51;;;;;;;10.23;8.30;;;3.90;99.90;;;;;;5043152;28;20513;-67
2021/12/25 01:58:19;;;;;;;7.00;4.90;;;3.90;99.90;;;;;;5034993;28;20449;-68
2021/12/25 02:00:48;;;;;;;7.40;3.00;;;3.90;99.90;;;;;;5048292;28;20913;-68
2021/12/25 02:03:18;;;;;;;7.33;4.63;;;3.80;99.90;;;;;;5038782;28;20940;-67
2021/12/25 02:05:45;;;;;;;6.37;5.37;;;3.60;99.90;;;;;;5032624;28;20629;-67
2021/12/25 02:08:13;;;;;;;6.30;4.10;;;3.80;99.90;;;;;;5039512;28;20437;-67
2021/12/25 02:10:40;;;;;;;5.10;3.67;;;3.70;99.90;;;;;;5047661;28;20977;-68
2021/12/25 02:13:11;;;;;;;7.27;4.20;;;3.70;99.90;;;;;;5041195;28;20457;-67
2021/12/25 02:15:40;;;;;;;4.23;2.93;;;3.80;99.90;;;;;;5035451;28;20490;-68
2021/12/25 02:18:13;;;;;;;8.30;4.83;;;3.90;99.90;;;;;;5029313;28;20439;-67
2021/12/25 02:20:49;;;;;;;9.17;6.13;;;3.90;99.90;;;;;;5043820;28;20445;-67
2021/12/25 02:23:19;;;;;;;9.37;5.17;;;3.90;99.90;;;;;;5040273;28;20457;-67
2021/12/25 02:25:46;;;;;;;7.40;4.07;;;3.80;99.90;;;;;;5031519;28;20588;-69
2021/12/25 02:28:15;;;;;;;3.87;2.80;;;3.80;99.90;;;;;;5040181;28;20475;-67
2021/12/25 02:30:44;;;;;;;8.23;2.73;;;3.80;99.90;;;;;;5030667;28;20443;-67
2021/12/25 02:33:12;;;;;;;5.07;3.87;;;3.80;99.90;;;;;;5051569;28;20520;-67
2021/12/25 02:35:39;;;;;;;3.70;2.20;;;3.80;99.90;;;;;;5026603;28;21141;-69
2021/12/25 02:38:07;;;;;;;6.20;4.53;;;3.80;99.90;;;;;;5055052;28;20529;-67
2021/12/25 02:40:35;;;;;;;5.33;4.30;;;3.60;99.90;;;;;;5041101;28;20500;-67
2021/12/25 02:43:02;;;;;;;4.47;2.60;;;3.50;99.90;;;;;;5040561;28;20468;-67
2021/12/25 02:45:29;;;;;;;3.77;2.70;;;3.50;99.90;;;;;;5036334;28;21494;-68
2021/12/25 02:47:57;;;;;;;2.43;2.23;;;3.40;99.90;;;;;;5047152;28;20461;-67
2021/12/25 02:50:27;;;;;;;4.20;3.67;;;3.40;99.90;;;;;;5044107;28;20524;-69
2021/12/25 02:52:54;;;;;;;1.90;1.60;;;3.40;99.90;;;;;;5040089;28;20770;-69
2021/12/25 02:55:22;;;;;;;6.20;3.20;;;3.30;99.90;;;;;;5043223;28;20535;-70
2021/12/25 02:57:52;;;;;;;7.57;3.80;;;3.30;99.90;;;;;;5055405;28;20524;-69
2021/12/25 03:00:20;;;;;;;6.93;5.03;;;3.30;99.90;;;;;;5039796;28;20462;-67
2021/12/25 03:02:48;;;;;;;11.33;4.23;;;3.30;99.90;;;;;;5042523;28;20468;-68
2021/12/25 03:05:17;;;;;;;1.80;1.70;;;3.30;99.90;;;;;;5032148;28;20435;-67
2021/12/25 03:07:45;;;;;;;7.30;4.10;;;3.30;99.90;;;;;;5049087;28;20519;-67
2021/12/25 03:10:15;;;;;;;7.33;3.00;;;3.30;99.90;;;;;;5025028;28;20466;-67
2021/12/25 03:12:50;;;;;;;6.50;2.90;;;3.30;99.90;;;;;;5056644;28;20597;-69
2021/12/25 03:15:27;;;;;;;6.03;4.03;;;3.20;99.90;;;;;;5036913;28;20454;-67
2021/12/25 03:17:55;;;;;;;4.90;4.40;;;3.20;99.90;;;;;;5036593;28;20461;-67
2021/12/25 03:20:22;;;;;;;3.73;3.43;;;3.30;99.90;;;;;;5039493;28;20429;-69
2021/12/25 03:22:49;;;;;;;6.70;4.60;;;3.30;99.90;;;;;;5040087;28;20450;-67
2021/12/25 03:25:18;;;;;;;18.03;4.97;;;3.20;99.90;;;;;;5024017;28;20574;-67
2021/12/25 03:27:48;;;;;;;6.10;5.33;;;3.20;99.90;;;;;;5031909;28;20549;-68
2021/12/25 03:30:17;;;;;;;6.33;3.50;;;3.20;99.90;;;;;;5047942;28;20460;-67
2021/12/25 03:32:45;;;;;;;4.60;3.40;;;3.20;99.90;;;;;;5032617;28;20468;-67
2021/12/25 03:35:12;;;;;;;5.30;3.37;;;3.10;99.90;;;;;;5035356;28;20469;-69
2021/12/25 03:37:39;;;;;;;3.43;3.03;;;3.00;99.90;;;;;;5044511;28;20520;-68
2021/12/25 03:40:08;;;;;;;5.90;4.83;;;3.10;99.90;;;;;;5047071;28;20441;-69
2021/12/25 03:42:36;;;;;;;11.20;4.53;;;3.10;99.90;;;;;;5044337;28;20951;-67
2021/12/25 03:45:05;;;;;;;4.73;3.77;;;3.10;99.90;;;;;;5044761;28;20477;-68
2021/12/25 03:47:36;;;;;;;3.63;3.23;;;3.00;99.90;;;;;;5030736;28;21137;-67
2021/12/25 03:58:26;;;;;;;4.70;2.63;;;2.90;99.90;;;;;;5042329;28;20458;-66
2021/12/25 04:01:00;;;;;;;4.40;3.60;;;2.80;99.90;;;;;;5028722;28;20466;-67
2021/12/25 04:03:40;;;;;;;3.10;2.90;;;2.70;99.90;;;;;;4995922;28;20462;-68
2021/12/25 04:06:10;;;;;;;5.33;4.50;;;2.60;99.90;;;;;;5032034;28;21347;-68
2021/12/25 04:08:42;;;;;;;2.50;2.40;;;2.60;99.90;;;;;;5019855;28;20552;-67
2021/12/25 04:11:13;;;;;;;1.33;1.23;;;2.60;99.90;;;;;;5020819;28;20473;-67
2021/12/25 04:13:41;;;;;;;1.73;1.33;;;2.60;99.90;;;;;;5052044;28;20461;-67
2021/12/25 04:16:09;;;;;;;3.37;3.10;;;2.60;99.90;;;;;;5015990;28;21161;-67
2021/12/25 04:18:36;;;;;;;3.93;3.53;;;2.60;99.90;;;;;;5043298;28;20465;-67
2021/12/25 04:21:03;;;;;;;6.17;2.20;;;2.50;99.90;;;;;;5050052;28;20434;-67
2021/12/25 04:23:30;;;;;;;4.10;2.83;;;2.60;99.90;;;;;;5024352;28;20475;-67
2021/12/25 04:25:59;;;;;;;5.43;4.60;;;2.70;99.90;;;;;;5037916;28;20455;-68
2021/12/25 04:28:37;;;;;;;3.10;2.00;;;2.60;99.90;;;;;;5042104;28;20495;-68
2021/12/25 04:31:22;;;;;;;4.73;3.33;;;2.50;99.90;;;;;;5043190;28;20459;-68
2021/12/25 04:48:01;;;;;;;2.80;2.40;;;2.50;99.90;;;;;;5028627;28;20476;-68
2021/12/25 05:04:13;;;;;;;5.07;2.80;;;2.30;99.90;;;;;;4995081;28;20465;-68
2021/12/25 05:06:41;;;;;;;3.47;2.60;;;2.40;99.90;;;;;;5019801;28;21174;-68
2021/12/25 05:09:08;;;;;;;5.77;3.40;;;2.40;99.90;;;;;;5025543;28;20437;-68
2021/12/25 05:11:35;;;;;;;1.90;1.50;;;2.40;99.90;;;;;;5023983;28;20584;-69
2021/12/25 05:14:02;;;;;;;1.73;1.63;;;2.10;99.90;;;;;;5024592;28;20506;-67
2021/12/25 05:16:29;;;;;;;2.03;1.70;;;2.10;99.90;;;;;;5013911;28;20513;-68
2021/12/25 05:18:56;;;;;;;2.80;2.60;;;2.10;99.90;;;;;;5026634;28;20591;-68
2021/12/25 05:21:24;;;;;;;2.03;1.83;;;2.20;99.90;;;;;;5011852;28;21649;-68
2021/12/25 05:23:52;;;;;;;2.40;2.20;;;2.10;99.90;;;;;;5019327;28;20482;-69
2021/12/25 05:26:19;;;;;;;4.40;4.00;;;2.00;99.90;;;;;;5018163;28;20453;-68
2021/12/25 05:28:57;;;;;;;1.73;1.63;;;2.10;99.90;;;;;;5015294;28;21532;-67
2021/12/25 05:31:24;;;;;;;1.40;1.20;;;2.10;99.90;;;;;;5009409;28;20514;-68
2021/12/25 05:33:51;;;;;;;3.63;1.30;;;2.00;99.90;;;;;;5000455;28;22722;-70
2021/12/25 05:36:18;;;;;;;3.23;3.03;;;1.90;99.90;;;;;;5011325;28;20441;-68
2021/12/25 05:38:45;;;;;;;6.30;3.90;;;2.00;99.90;;;;;;5028182;28;20527;-68
2021/12/25 05:41:14;;;;;;;2.60;1.97;;;2.00;99.90;;;;;;5036137;28;20727;-68
2021/12/25 05:43:42;;;;;;;2.97;2.70;;;1.90;99.90;;;;;;5005085;28;21305;-68
2021/12/25 05:46:09;;;;;;;4.47;1.73;;;1.90;99.90;;;;;;5020917;28;20434;-68
2021/12/25 05:48:36;;;;;;;1.40;1.17;;;1.80;99.90;;;;;;5026802;28;20483;-68
2021/12/25 05:51:04;;;;;;;1.60;1.50;;;1.80;99.90;;;;;;5025448;28;20459;-68
2021/12/25 05:53:31;;;;;;;1.70;1.43;;;1.90;99.90;;;;;;5037402;28;20514;-67
2021/12/25 05:55:58;;;;;;;5.73;3.13;;;1.90;99.90;;;;;;5006454;28;20483;-68
2021/12/25 05:58:27;;;;;;;3.07;2.67;;;2.00;99.90;;;;;;5017208;28;20947;-69
2021/12/25 06:00:55;;;;;;;4.23;2.17;;;2.10;99.90;;;;;;5010052;28;20479;-69
2021/12/25 06:03:22;;;;;;;3.70;2.23;;;2.10;99.90;;;;;;5028451;28;20487;-68
2021/12/25 06:05:49;;;;;;;2.47;2.27;;;2.10;99.90;;;;;;5006234;28;21232;-68
2021/12/25 06:08:16;;;;;;;4.07;1.83;;;2.00;99.90;;;;;;5014775;28;20517;-69
2021/12/25 06:10:44;;;;;;;1.10;0.87;;;2.00;99.90;;;;;;5009176;28;21131;-69
2021/12/25 06:13:17;;;;;;;2.90;1.73;;;1.90;99.90;;;;;;5017941;28;22881;-66
2021/12/25 06:15:46;;;;;;;3.57;1.90;;;1.90;99.90;;;;;;4998680;28;20434;-67
2021/12/25 06:18:13;;;;;;;5.20;2.70;;;1.90;99.90;;;;;;5000782;28;22142;-67
2021/12/25 06:20:40;;;;;;;3.13;2.27;;;1.90;99.90;;;;;;5009025;28;21594;-69
2021/12/25 06:23:07;;;;;;;2.43;2.13;;;1.80;99.90;;;;;;5010404;28;22212;-69
2021/12/25 06:25:35;;;;;;;5.23;3.20;;;1.90;99.90;;;;;;5015619;28;20914;-67
2021/12/25 06:28:02;;;;;;;2.33;1.77;;;1.90;99.90;;;;;;5008582;28;20460;-68
2021/12/25 06:30:29;;;;;;;4.30;2.60;;;1.90;99.90;;;;;;5007980;28;23005;-67
2021/12/25 06:32:57;;;;;;;2.80;2.50;;;1.90;99.90;;;;;;5002773;28;21644;-68
2021/12/25 06:35:24;;;;;;;3.37;2.00;;;1.90;99.90;;;;;;5015485;28;20646;-68
2021/12/25 06:37:51;;;;;;;2.60;2.40;;;1.80;99.90;;;;;;5014630;28;20482;-67
2021/12/25 06:40:19;;;;;;;3.00;2.23;;;1.80;99.90;;;;;;5021680;28;20466;-67
2021/12/25 06:42:47;;;;;;;4.23;3.33;;;1.90;99.90;;;;;;5016359;28;20449;-68
2021/12/25 06:45:14;;;;;;;5.23;3.13;;;1.90;99.90;;;;;;4988385;28;20461;-68
2021/12/25 06:47:41;;;;;;;3.60;2.53;;;1.80;99.90;;;;;;5016446;28;20612;-67
2021/12/25 06:50:11;;;;;;;6.23;1.80;;;1.90;99.90;;;;;;5022544;28;20462;-67
2021/12/25 06:52:38;;;;;;;1.50;1.20;;;1.90;99.90;;;;;;5025330;28;20880;-68
2021/12/25 06:55:07;;;;;;;3.70;2.70;;;1.80;99.90;;;;;;4983671;28;20474;-67
2021/12/25 06:57:43;;;;;;;4.33;3.53;;;1.70;99.90;;;;;;5003034;28;21145;-69
2021/12/25 07:00:11;;;;;;;4.73;3.47;;;1.50;99.90;;;;;;5002468;28;20494;-69
2021/12/25 07:02:38;;;;;;;4.17;2.60;;;1.60;99.90;;;;;;4986117;28;20460;-69
2021/12/25 07:05:05;;;;;;;3.47;1.83;;;1.70;99.90;;;;;;4989636;28;20434;-69
2021/12/25 07:07:34;;;;;;;2.47;2.20;;;1.70;99.90;;;;;;4996550;28;20476;-69
2021/12/25 07:10:01;;;;;;;3.30;2.50;;;1.70;99.90;;;;;;5020620;28;20972;-68
2021/12/25 07:12:31;;;;;;;2.43;2.23;;;1.60;99.90;;;;;;5036721;28;20747;-68
2021/12/25 07:14:58;;;;;;;4.30;2.63;;;1.70;99.90;;;;;;5029274;28;21243;-70
2021/12/25 07:17:25;;;;;;;1.77;1.60;;;1.60;99.90;;;;;;5019010;28;20460;-68
2021/12/25 07:19:52;;;;;;;2.67;2.10;;;1.60;99.90;;;;;;5034879;28;20620;-69
2021/12/25 07:22:19;;;;;;;4.27;2.50;;;1.60;99.90;;;;;;5033867;28;20991;-69
2021/12/25 07:24:47;;;;;;;1.70;1.60;;;1.60;99.90;;;;;;5030714;28;21784;-68
2021/12/25 07:27:15;;;;;;;6.10;3.30;;;1.70;99.90;;;;;;5038739;28;20548;-68
2021/12/25 07:29:42;;;;;;;3.47;2.53;;;1.60;99.90;;;;;;5032198;28;20459;-69
2021/12/25 07:32:09;;;;;;;2.27;2.07;;;1.70;99.90;;;;;;5041416;28;20637;-67
2021/12/25 07:34:36;;;;;;;2.57;1.80;;;1.70;99.90;;;;;;5027093;28;20430;-69
2021/12/25 07:37:04;;;;;;;2.03;1.83;;;1.60;99.90;;;;;;5029584;28;20436;-69
2021/12/25 07:39:31;;;;;;;2.33;1.83;;;1.40;99.90;;;;;;5032862;28;20461;-70
2021/12/25 07:41:59;;;;;;;8.37;2.43;;;1.30;99.90;;;;;;5030669;28;20874;-69
2021/12/25 07:44:26;;;;;;;1.83;1.70;;;1.40;99.90;;;;;;5045390;28;20441;-69
2021/12/25 07:46:54;;;;;;;1.77;1.57;;;1.40;99.90;;;;;;5027715;28;20470;-69
2021/12/25 07:49:22;;;;;;;3.10;1.23;;;1.30;99.90;;;;;;5039736;28;20467;-68
2021/12/25 07:51:49;;;;;;;3.67;2.63;;;1.30;99.90;;;;;;5013917;28;20433;-68
2021/12/25 07:54:17;;;;;;;1.83;1.50;;;1.30;99.90;;;;;;5032183;28;20486;-68
2021/12/25 07:56:44;;;;;;;1.97;1.87;;;1.30;99.90;;;;;;5025801;28;20559;-68
2021/12/25 07:59:13;;;;;;;1.87;1.23;;;1.40;99.90;;;;;;5029928;28;21141;-69
2021/12/25 08:01:41;;;;;;;4.83;2.53;;;1.50;99.90;;;;;;5022489;28;22399;-68
2021/12/25 08:04:09;;;;;;;2.60;2.20;;;1.60;99.90;;;;;;5022501;28;20475;-69
2021/12/25 08:06:37;;;;;;;2.10;1.60;;;1.60;99.90;;;;;;5035534;28;20853;-70
2021/12/25 08:09:04;;;;;;;3.77;3.47;;;1.60;99.90;;;;;;5020506;28;20590;-70
2021/12/25 08:11:31;;;;;;;1.30;1.20;;;1.60;99.90;;;;;;5021811;28;21490;-68
2021/12/25 08:13:59;;;;;;;2.20;2.00;;;1.40;99.90;;;;;;5024399;28;20483;-69
2021/12/25 08:16:27;;;;;;;4.73;2.40;;;1.40;99.90;;;;;;5017294;28;20624;-68
2021/12/25 08:18:54;;;;;;;2.20;1.70;;;1.30;99.90;;;;;;5033885;28;20456;-68
2021/12/25 08:21:21;;;;;;;2.20;1.33;;;1.30;99.90;;;;;;5028281;28;20429;-69
2021/12/25 08:23:49;;;;;;;1.73;1.63;;;1.40;99.90;;;;;;5035399;28;20460;-69
2021/12/25 08:26:17;;;;;;;0.90;0.80;;;1.30;99.90;;;;;;5028394;28;20449;-68
2021/12/25 08:28:44;;;;;;;1.70;1.60;;;1.30;99.90;;;;;;5016372;28;20479;-69
2021/12/25 08:31:11;;;;;;;4.27;2.67;;;1.20;99.90;;;;;;5028981;28;21061;-69
2021/12/25 08:33:40;;;;;;;1.03;0.93;;;1.20;99.90;;;;;;5034027;28;20596;-68
2021/12/25 08:36:07;;;;;;;2.00;1.90;;;1.20;99.90;;;;;;5026296;28;20487;-70
2021/12/25 08:38:34;;;;;;;2.80;1.70;;;1.10;99.90;;;;;;5027566;28;20517;-69
2021/12/25 08:41:01;;;;;;;0.93;0.77;;;1.20;99.90;;;;;;5031827;28;20236;-69
2021/12/25 08:43:33;;;;;;;1.20;1.00;;;1.10;99.90;;;;;;5016381;28;20489;-70
2021/12/25 08:46:03;;;;;;;1.20;1.10;;;1.20;99.90;;;;;;5024425;28;20463;-69
2021/12/25 08:48:31;;;;;;;1.37;0.93;;;1.10;99.90;;;;;;5022046;28;20638;-69
2021/12/25 08:51:00;;;;;;;0.90;0.70;;;1.10;99.90;;;;;;5020052;28;20430;-69
2021/12/25 08:53:29;;;;;;;1.10;0.97;;;1.10;99.90;;;;;;5025221;28;20476;-68
2021/12/25 08:55:58;;;;;;;1.80;1.70;;;1.00;99.90;;;;;;5021628;28;20685;-68
2021/12/25 08:58:26;;;;;;;0.90;0.70;;;1.00;99.90;;;;;;5027872;28;20968;-67
2021/12/25 09:00:57;;;;;;;1.73;1.63;;;1.10;99.90;;;;;;5037269;28;20433;-67
2021/12/25 09:03:25;;;;;;;2.83;1.30;;;1.10;99.90;;;;;;5019798;28;20461;-68
2021/12/25 09:05:54;;;;;;;0.90;0.80;;;1.00;99.90;;;;;;5023722;28;20475;-67
2021/12/25 09:08:22;;;;;;;1.77;1.10;;;0.90;99.90;;;;;;5028979;28;20479;-68
2021/12/25 09:10:49;;;;;;;1.00;0.90;;;0.90;99.90;;;;;;5013351;28;20578;-68
2021/12/25 09:13:16;;;;;;;1.57;1.00;;;1.00;99.90;;;;;;4996712;28;20477;-68
2021/12/25 09:15:43;;;;;;;1.10;0.90;;;0.90;99.90;;;;;;5018724;28;20466;-69
2021/12/25 09:18:11;;;;;;;1.10;1.00;;;0.80;99.90;;;;;;5013350;28;22252;-67
2021/12/25 09:20:38;;;;;;;1.30;1.00;;;0.70;99.90;;;;;;5027121;28;20491;-68
2021/12/25 09:23:05;;;;;;;0.90;0.70;;;0.80;99.90;;;;;;5032648;28;20482;-69
2021/12/25 09:25:34;;;;;;;1.90;1.40;;;0.90;99.90;;;;;;5029416;28;20474;-68
2021/12/25 09:28:01;;;;;;;0.90;0.80;;;0.90;99.90;;;;;;5032663;28;20981;-68
2021/12/25 09:30:28;;;;;;;1.10;1.00;;;0.90;99.90;;;;;;5033173;28;20442;-69
2021/12/25 09:32:55;;;;;;;1.50;1.30;;;1.10;99.90;;;;;;5026177;28;21114;-68
2021/12/25 09:35:24;;;;;;;1.80;0.87;;;1.00;99.90;;;;;;5019136;28;20571;-69
2021/12/25 09:37:51;;;;;;;1.10;1.00;;;1.20;99.90;;;;;;5020146;28;20458;-68
2021/12/25 09:40:18;;;;;;;1.10;1.00;;;1.10;99.90;;;;;;5025841;28;20512;-67
2021/12/25 09:42:46;;;;;;;1.30;0.90;;;1.10;99.90;;;;;;5032608;28;20456;-68
2021/12/25 09:45:14;;;;;;;1.10;0.90;;;1.10;99.90;;;;;;5021951;28;20496;-68
2021/12/25 09:47:42;;;;;;;1.67;1.17;;;1.20;99.90;;;;;;5016241;28;20547;-70
2021/12/25 09:50:10;;;;;;;1.00;0.80;;;1.00;99.90;;;;;;5030032;28;20635;-68
2021/12/25 09:52:38;;;;;;;1.33;0.90;;;1.10;99.90;;;;;;5015622;28;21258;-68
2021/12/25 09:55:06;;;;;;;1.37;1.13;;;1.10;99.90;;;;;;5021057;28;22886;-68
2021/12/25 09:57:33;;;;;;;2.50;1.00;;;1.10;99.90;;;;;;5031868;28;20574;-68
2021/12/25 10:00:08;;;;;;;1.87;1.43;;;1.00;99.90;;;;;;5027976;28;20465;-69
2021/12/25 10:02:42;;;;;;;1.17;1.07;;;1.10;99.90;;;;;;5031556;28;20464;-69
2021/12/25 10:05:10;;;;;;;1.20;1.07;;;1.30;99.90;;;;;;5013268;28;20436;-70
2021/12/25 10:07:37;;;;;;;1.03;0.93;;;1.30;99.90;;;;;;5026043;28;20513;-70
2021/12/25 10:10:07;;;;;;;1.17;1.00;;;1.30;99.90;;;;;;5029416;28;20514;-69
2021/12/25 10:12:41;;;;;;;0.97;0.83;;;1.30;99.90;;;;;;5030060;28;21029;-72
2021/12/25 10:15:13;;;;;;;1.60;1.20;;;1.40;99.90;;;;;;5025237;28;20629;-69
2021/12/25 10:17:47;;;;;;;1.67;1.20;;;1.50;99.90;;;;;;5019348;28;22133;-68
2021/12/25 10:20:17;;;;;;;1.40;1.20;;;1.40;99.90;;;;;;5024507;28;20462;-68
2021/12/25 10:23:01;;;;;;;1.17;1.03;;;1.20;99.90;;;;;;5018580;28;21827;-68
2021/12/25 10:25:32;;;;;;;0.90;0.70;;;1.20;99.90;;;;;;5013151;28;20507;-67
2021/12/25 10:28:03;;;;;;;2.33;1.87;;;1.20;99.90;;;;;;5027347;28;20876;-67
2021/12/25 10:30:32;;;;;;;1.23;1.03;;;1.00;99.90;;;;;;5025664;28;20436;-69
2021/12/25 10:32:59;;;;;;;0.90;0.70;;;1.20;99.90;;;;;;5026052;28;20457;-67
2021/12/25 10:35:28;;;;;;;0.90;0.70;;;1.30;99.90;;;;;;5019412;28;20467;-68
2021/12/25 10:37:56;;;;;;;1.00;0.90;;;1.30;99.90;;;;;;5028395;28;20459;-70
2021/12/25 10:40:31;;;;;;;0.90;0.70;;;1.40;99.90;;;;;;5028657;28;20564;-69
2021/12/25 10:43:00;;;;;;;4.10;3.73;;;1.50;99.90;;;;;;5015144;28;22247;-70
2021/12/25 10:45:28;;;;;;;3.83;1.77;;;1.40;99.90;;;;;;5022268;28;20462;-69
2021/12/25 10:48:07;;;;;;;2.40;1.27;;;1.60;99.90;;;;;;5027042;28;20424;-69
2021/12/25 10:50:43;;;;;;;1.73;1.30;;;1.70;99.90;;;;;;5022615;28;21110;-68
2021/12/25 10:53:23;;;;;;;1.10;1.00;;;1.80;99.90;;;;;;5017169;28;20456;-67
2021/12/25 10:55:51;;;;;;;1.77;1.67;;;1.90;99.90;;;;;;5016624;28;21036;-67
2021/12/25 10:58:22;;;;;;;1.53;1.10;;;1.70;99.90;;;;;;5022210;28;20620;-67
2021/12/25 11:00:53;;;;;;;1.27;1.10;;;1.50;99.90;;;;;;5021752;28;20529;-67
2021/12/25 11:03:28;;;;;;;3.33;1.90;;;1.30;99.90;;;;;;5013327;28;20571;-67
2021/12/25 11:06:00;;;;;;;1.67;1.17;;;1.40;99.90;;;;;;5027296;28;21267;-70
2021/12/25 11:08:29;;;;;;;1.50;1.40;;;1.60;99.90;;;;;;5038040;28;20453;-67
2021/12/25 11:10:58;;;;;;;1.40;1.30;;;1.70;99.90;;;;;;5016856;28;21017;-68
2021/12/25 11:13:27;;;;;;;1.00;0.87;;;1.60;99.90;;;;;;5026751;28;20483;-67
2021/12/25 11:16:03;;;;;;;1.13;1.00;;;1.60;99.90;;;;;;5023817;28;20983;-67
2021/12/25 11:18:33;;;;;;;0.90;0.70;;;1.40;99.90;;;;;;5029623;28;20447;-67
2021/12/25 11:21:09;;;;;;;2.60;2.40;;;1.40;99.90;;;;;;5029755;28;20437;-68
2021/12/25 11:23:36;;;;;;;1.10;1.00;;;1.50;99.90;;;;;;5017700;28;21470;-67
2021/12/25 11:26:03;;;;;;;2.23;1.37;;;1.50;99.90;;;;;;5005268;28;20432;-68
2021/12/25 11:28:30;;;;;;;1.40;1.10;;;1.40;99.90;;;;;;5022499;28;20460;-67
2021/12/25 11:30:57;;;;;;;0.90;0.80;;;1.30;99.90;;;;;;5020696;28;20552;-67
2021/12/25 11:33:24;;;;;;;1.60;1.37;;;1.40;99.90;;;;;;5008495;28;20449;-68
2021/12/25 11:35:53;;;;;;;6.20;2.30;;;1.20;99.90;;;;;;5025656;28;20628;-67
2021/12/25 11:38:20;;;;;;;1.67;1.57;;;1.30;99.90;;;;;;5016916;28;20449;-68
2021/12/25 11:40:52;;;;;;;0.90;0.60;;;1.30;99.90;;;;;;5028680;28;20977;-69
2021/12/25 11:43:35;;;;;;;1.00;0.80;;;1.30;99.90;;;;;;5021448;28;21062;-68
2021/12/25 11:46:06;;;;;;;1.13;1.03;;;1.40;99.90;;;;;;5021120;28;20485;-67
2021/12/25 11:48:33;;;;;;;1.43;1.30;;;1.30;99.90;;;;;;5015796;28;20447;-68
2021/12/25 11:51:02;;;;;;;2.10;1.03;;;1.30;99.90;;;;;;5028731;28;20483;-68
2021/12/25 11:53:44;;;;;;;5.53;1.67;;;1.40;99.90;;;;;;5026062;28;23991;-67
2021/12/25 11:56:28;;;;;;;3.00;1.47;;;1.40;99.90;;;;;;5023846;28;20430;-69
2021/12/25 11:58:57;;;;;;;0.90;0.80;;;1.40;99.90;;;;;;5024723;28;20589;-68
2021/12/25 12:01:31;;;;;;;1.10;1.00;;;1.40;99.90;;;;;;5022012;28;20459;-68
2021/12/25 12:04:00;;;;;;;1.00;0.80;;;1.30;99.90;;;;;;5026308;28;20549;-67
2021/12/25 12:06:58;;;;;;;1.37;1.00;;;1.30;99.90;;;;;;5025101;28;20430;-69
2021/12/25 12:09:30;;;;;;;1.00;0.80;;;1.30;99.90;;;;;;5023128;28;20510;-68
2021/12/25 12:12:19;;;;;;;0.90;0.70;;;1.40;99.90;;;;;;5021408;28;20543;-68
2021/12/25 12:15:04;;;;;;;0.90;0.70;;;1.30;99.90;;;;;;5025922;28;20969;-67
2021/12/25 12:17:32;;;;;;;0.90;0.80;;;1.40;99.90;;;;;;5030879;28;21106;-67
2021/12/25 12:20:03;;;;;;;1.00;0.87;;;1.30;99.90;;;;;;5015362;28;20433;-67
2021/12/25 12:22:49;;;;;;;0.90;0.60;;;1.30;99.90;;;;;;5013765;28;20588;-68
2021/12/25 12:25:24;;;;;;;7.60;1.87;;;1.50;99.90;;;;;;5012393;28;20834;-68
2021/12/25 12:27:53;;;;;;;1.30;1.20;;;1.60;99.90;;;;;;5023208;28;20552;-67
2021/12/25 12:30:54;;;;;;;4.93;2.40;;;1.60;99.90;;;;;;5011982;28;23647;-68
2021/12/25 12:33:32;;;;;;;1.07;0.67;;;1.60;99.90;;;;;;4955899;28;20618;-69
2021/12/25 12:36:00;;;;;;;1.10;1.00;;;1.50;99.90;;;;;;4943977;28;20493;-69
2021/12/25 12:38:39;;;;;;;1.30;1.20;;;2.00;99.90;;;;;;4990186;28;20438;-68
2021/12/25 12:41:14;;;;;;;1.67;1.37;;;3.10;99.90;;;;;;5028602;28;20462;-70
2021/12/25 12:44:06;;;;;;;0.90;0.70;;;4.40;99.90;;;;;;5016964;28;20613;-69
2021/12/25 12:46:58;;;;;;;1.57;0.80;;;4.90;99.90;;;;;;5017833;28;20429;-69
2021/12/25 12:49:27;;;;;;;0.90;0.70;;;4.50;99.90;;;;;;5027756;28;20540;-69
2021/12/25 12:52:17;;;;;;;1.90;1.10;;;4.50;99.90;;;;;;5024699;28;20495;-69
2021/12/25 12:54:47;;;;;;;0.90;0.80;;;4.70;99.90;;;;;;5023309;28;20624;-68
2021/12/25 12:57:19;;;;;;;1.87;1.20;;;4.70;99.90;;;;;;5022802;28;20455;-69
2021/12/25 12:59:49;;;;;;;1.33;1.07;;;4.80;99.90;;;;;;5028389;28;20560;-68
2021/12/25 13:02:17;;;;;;;1.30;1.10;;;4.70;99.90;;;;;;5022374;28;20463;-68
2021/12/25 13:04:47;;;;;;;1.20;1.07;;;4.90;99.90;;;;;;5025435;28;21491;-68
2021/12/25 13:07:16;;;;;;;1.10;1.00;;;4.90;99.90;;;;;;5027225;28;21203;-68
2021/12/25 13:09:50;;;;;;;1.50;1.40;;;4.90;99.90;;;;;;5023050;28;20489;-69
2021/12/25 13:12:31;;;;;;;0.90;0.70;;;4.80;99.90;;;;;;5027181;28;20962;-69
2021/12/25 13:15:00;;;;;;;2.20;0.80;;;5.20;99.20;;;;;;5016170;28;20471;-68
2021/12/25 13:17:27;;;;;;;1.63;0.77;;;5.80;98.50;;;;;;5017212;28;20467;-68
2021/12/25 13:19:55;;;;;;;5.80;1.40;;;6.10;95.50;;;;;;5020555;28;20458;-68
2021/12/25 13:22:22;;;;;;;1.00;0.73;;;5.40;94.20;;;;;;5029188;28;20568;-67
2021/12/25 13:24:55;;;;;;;0.90;0.70;;;5.00;95.10;;;;;;5014276;28;20460;-69
2021/12/25 13:27:22;;;;;;;1.27;0.90;;;5.40;95.90;;;;;;5018883;28;20462;-67
2021/12/25 13:29:50;;;;;;;0.90;0.70;;;6.00;95.40;;;;;;5018517;28;20482;-68
2021/12/25 13:32:27;;;;;;;1.00;0.90;;;6.20;94.50;;;;;;5025754;28;21087;-67
2021/12/25 13:34:54;;;;;;;0.90;0.70;;;6.50;92.70;;;;;;5024799;28;20441;-68
2021/12/25 13:37:21;;;;;;;1.00;0.80;;;6.10;91.70;;;;;;5016102;28;20897;-69
2021/12/25 13:39:49;;;;;;;1.00;0.77;;;6.00;92.00;;;;;;5026006;28;20530;-67
2021/12/25 13:42:18;;;;;;;0.97;0.73;;;6.20;92.00;;;;;;5011890;28;20595;-68
2021/12/25 13:44:48;;;;;;;0.97;0.77;;;5.80;90.50;;;;;;5018691;28;20452;-67
2021/12/25 13:47:22;;;;;;;0.90;0.70;;;5.40;90.00;;;;;;5011126;28;20879;-67
2021/12/25 13:49:52;;;;;;;1.20;1.03;;;5.10;91.90;;;;;;5014120;28;20953;-67
2021/12/25 13:52:33;;;;;;;0.90;0.70;;;5.50;91.40;;;;;;5022942;28;20917;-68
2021/12/25 13:55:06;;;;;;;1.57;1.10;;;4.90;91.40;;;;;;5026233;28;20459;-68
2021/12/25 13:57:40;;;;;;;4.83;1.23;;;4.10;91.70;;;;;;5029381;28;20469;-68
2021/12/25 14:00:10;;;;;;;1.20;1.00;;;3.50;92.60;;;;;;5019931;28;20958;-67
2021/12/25 14:02:38;;;;;;;1.43;1.00;;;3.20;93.70;;;;;;5020585;28;20570;-67